Time,TemperatureF,DewpointF,PressureIn,WindDirection,WindDirectionDegrees,WindSpeedMPH,WindSpeedGustMPH,Humidity,HourlyPrecipIn,Conditions,Clouds,dailyrainin,SoftwareType,DateUTC
2013-11-15 00:11:00,33.8,23.3,29.95,WSW,247,4.7,-999.0,65,-99.99,,,0.00,Acu-Link.com,2013-11-15 05:11:00,
2013-11-15 00:26:00,33.8,23.7,29.94,SW,225,3.2,-999.0,66,-99.99,,,0.00,Acu-Link.com,2013-11-15 05:26:00,
2013-11-15 00:42:00,32.5,22.8,29.95,SSW,202,0.0,-999.0,67,-99.99,,,0.00,Acu-Link.com,2013-11-15 05:42:00,
2013-11-15 00:57:00,31.6,21.9,29.94,NNE,22,0.0,-999.0,67,-99.99,,,0.00,Acu-Link.com,2013-11-15 05:57:00,
2013-11-15 01:12:00,30.9,21.9,29.93,WSW,247,2.2,-999.0,69,-99.99,,,0.00,Acu-Link.com,2013-11-15 06:12:00,
2013-11-15 01:27:00,31.1,22.5,29.93,SW,225,0.0,-999.0,70,-99.99,,,0.00,Acu-Link.com,2013-11-15 06:27:00,
2013-11-15 01:42:00,30.6,22.0,29.92,West,270,0.0,-999.0,70,-99.99,,,0.00,Acu-Link.com,2013-11-15 06:42:00,
2013-11-15 01:57:00,29.5,21.6,29.92,ESE,112,0.0,-999.0,72,-99.99,,,0.00,Acu-Link.com,2013-11-15 06:57:00,
2013-11-15 02:12:00,28.6,21.1,29.92,SW,225,0.0,-999.0,73,-99.99,,,0.00,Acu-Link.com,2013-11-15 07:12:00,
2013-11-15 02:27:00,28.2,21.0,29.92,South,180,0.0,-999.0,74,-99.99,,,0.00,Acu-Link.com,2013-11-15 07:27:00,
2013-11-15 02:42:00,27.3,21.1,29.93,WSW,247,0.0,-999.0,77,-99.99,,,0.00,Acu-Link.com,2013-11-15 07:42:00,
2013-11-15 02:57:00,28.0,21.4,29.94,SSW,202,0.0,-999.0,76,-99.99,,,0.00,Acu-Link.com,2013-11-15 07:57:00,
2013-11-15 03:13:00,28.2,21.3,29.93,WNW,292,0.0,-999.0,75,-99.99,,,0.00,Acu-Link.com,2013-11-15 08:13:00,
2013-11-15 03:28:00,28.2,21.3,29.93,West,270,0.0,-999.0,75,-99.99,,,0.00,Acu-Link.com,2013-11-15 08:28:00,
2013-11-15 03:43:00,28.0,21.7,29.92,West,270,0.0,-999.0,77,-99.99,,,0.00,Acu-Link.com,2013-11-15 08:43:00,
2013-11-15 03:58:00,27.9,21.6,29.93,SW,225,0.0,-999.0,77,-99.99,,,0.00,Acu-Link.com,2013-11-15 08:58:00,
2013-11-15 04:13:00,27.9,21.6,29.91,WNW,292,0.0,-999.0,77,-99.99,,,0.00,Acu-Link.com,2013-11-15 09:13:00,
2013-11-15 04:28:00,28.6,21.7,29.91,West,270,2.7,-999.0,75,-99.99,,,0.00,Acu-Link.com,2013-11-15 09:28:00,
2013-11-15 04:43:00,29.1,22.5,29.92,West,270,0.0,-999.0,76,-99.99,,,0.00,Acu-Link.com,2013-11-15 09:43:00,
2013-11-15 04:58:00,29.1,22.2,29.92,West,270,1.7,-999.0,75,-99.99,,,0.00,Acu-Link.com,2013-11-15 09:58:00,
2013-11-15 05:13:00,28.8,22.5,29.92,West,270,0.0,-999.0,77,-99.99,,,0.00,Acu-Link.com,2013-11-15 10:13:00,
2013-11-15 05:29:00,28.4,22.4,29.91,West,270,0.0,-999.0,78,-99.99,,,0.00,Acu-Link.com,2013-11-15 10:29:00,
2013-11-15 05:44:00,28.8,22.5,29.93,West,270,0.0,-999.0,77,-99.99,,,0.00,Acu-Link.com,2013-11-15 10:44:00,
2013-11-15 05:59:00,29.1,22.2,29.92,NNE,22,0.0,-999.0,75,-99.99,,,0.00,Acu-Link.com,2013-11-15 10:59:00,
2013-11-15 06:14:00,28.4,23.0,29.93,ESE,112,0.0,-999.0,80,-99.99,,,0.00,Acu-Link.com,2013-11-15 11:14:00,
2013-11-15 06:29:00,27.5,22.4,29.94,SE,135,0.0,-999.0,81,-99.99,,,0.00,Acu-Link.com,2013-11-15 11:29:00,
2013-11-15 06:44:00,27.3,22.5,29.93,SE,135,0.0,-999.0,82,-99.99,,,0.00,Acu-Link.com,2013-11-15 11:44:00,
2013-11-15 06:59:00,27.7,22.6,29.93,SE,135,0.0,-999.0,81,-99.99,,,0.00,Acu-Link.com,2013-11-15 11:59:00,
2013-11-15 07:14:00,28.0,22.9,29.95,SE,135,0.0,-999.0,81,-99.99,,,0.00,Acu-Link.com,2013-11-15 12:14:00,
2013-11-15 07:29:00,28.8,23.7,29.94,SE,135,0.0,-999.0,81,-99.99,,,0.00,Acu-Link.com,2013-11-15 12:29:00,
2013-11-15 07:45:00,30.4,25.3,29.94,ESE,112,0.0,-999.0,81,-99.99,,,0.00,Acu-Link.com,2013-11-15 12:45:00,
2013-11-15 08:00:00,31.5,26.9,29.94,SW,225,0.0,-999.0,83,-99.99,,,0.00,Acu-Link.com,2013-11-15 13:00:00,
2013-11-15 08:15:00,32.7,28.4,29.95,South,180,0.0,-999.0,84,-99.99,,,0.00,Acu-Link.com,2013-11-15 13:15:00,
2013-11-15 08:30:00,34.0,29.7,29.94,East,90,0.0,-999.0,84,-99.99,,,0.00,Acu-Link.com,2013-11-15 13:30:00,
2013-11-15 08:45:00,36.0,31.0,29.95,SSE,157,0.0,-999.0,82,-99.99,,,0.00,Acu-Link.com,2013-11-15 13:45:00,
2013-11-15 09:00:00,37.8,30.3,29.95,SSW,202,0.0,-999.0,74,-99.99,,,0.00,Acu-Link.com,2013-11-15 14:00:00,
2013-11-15 09:15:00,44.1,33.1,29.94,SSW,202,0.0,-999.0,65,-99.99,,,0.00,Acu-Link.com,2013-11-15 14:15:00,
2013-11-15 09:30:00,44.6,30.3,29.94,West,270,0.0,-999.0,57,-99.99,,,0.00,Acu-Link.com,2013-11-15 14:30:00,
2013-11-15 09:45:00,46.0,30.7,29.94,West,270,3.7,-999.0,55,-99.99,,,0.00,Acu-Link.com,2013-11-15 14:45:00,
2013-11-15 10:01:00,46.4,32.0,29.95,West,270,3.2,-999.0,57,-99.99,,,0.00,Acu-Link.com,2013-11-15 15:01:00,
2013-11-15 10:16:00,48.0,32.2,29.94,WSW,247,2.7,-999.0,54,-99.99,,,0.00,Acu-Link.com,2013-11-15 15:16:00,
2013-11-15 10:31:00,50.2,32.8,29.94,WSW,247,4.2,-999.0,51,-99.99,,,0.00,Acu-Link.com,2013-11-15 15:31:00,
2013-11-15 10:46:00,52.3,36.2,29.94,SW,225,1.1,-999.0,54,-99.99,,,0.00,Acu-Link.com,2013-11-15 15:46:00,
2013-11-15 11:01:00,54.9,37.1,29.94,SW,225,8.9,-999.0,51,-99.99,,,0.00,Acu-Link.com,2013-11-15 16:01:00,
2013-11-15 11:16:00,54.1,36.9,29.93,SW,225,5.3,-999.0,52,-99.99,,,0.00,Acu-Link.com,2013-11-15 16:16:00,
2013-11-15 11:31:00,55.0,37.7,29.93,SW,225,6.8,-999.0,52,-99.99,,,0.00,Acu-Link.com,2013-11-15 16:31:00,
2013-11-15 11:46:00,54.9,38.1,29.92,SW,225,9.4,-999.0,53,-99.99,,,0.00,Acu-Link.com,2013-11-15 16:46:00,
2013-11-15 12:01:00,55.6,39.2,29.92,SW,225,4.2,-999.0,54,-99.99,,,0.00,Acu-Link.com,2013-11-15 17:01:00,
2013-11-15 12:17:00,57.6,40.1,29.90,SW,225,8.9,-999.0,52,-99.99,,,0.00,Acu-Link.com,2013-11-15 17:17:00,
2013-11-15 12:32:00,56.1,39.7,29.90,SW,225,4.2,-999.0,54,-99.99,,,0.00,Acu-Link.com,2013-11-15 17:32:00,
2013-11-15 12:47:00,56.3,40.3,29.90,SW,225,8.3,-999.0,55,-99.99,,,0.00,Acu-Link.com,2013-11-15 17:47:00,
2013-11-15 13:02:00,56.5,40.5,29.90,SW,225,7.3,-999.0,55,-99.99,,,0.00,Acu-Link.com,2013-11-15 18:02:00,
2013-11-15 13:17:00,56.3,40.3,29.90,WSW,247,6.8,-999.0,55,-99.99,,,0.00,Acu-Link.com,2013-11-15 18:17:00,
2013-11-15 13:32:00,56.3,40.8,29.89,SW,225,4.7,-999.0,56,-99.99,,,0.00,Acu-Link.com,2013-11-15 18:32:00,
2013-11-15 13:47:00,55.8,40.8,29.88,West,270,6.8,-999.0,57,-99.99,,,0.00,Acu-Link.com,2013-11-15 18:47:00,
2013-11-15 14:02:00,55.8,41.2,29.88,SSW,202,8.9,-999.0,58,-99.99,,,0.00,Acu-Link.com,2013-11-15 19:02:00,
2013-11-15 14:17:00,55.6,41.5,29.88,WSW,247,4.2,-999.0,59,-99.99,,,0.00,Acu-Link.com,2013-11-15 19:17:00,
2013-11-15 14:33:00,55.2,41.1,29.87,SW,225,5.3,-999.0,59,-99.99,,,0.00,Acu-Link.com,2013-11-15 19:33:00,
2013-11-15 14:48:00,55.0,40.9,29.87,SW,225,3.7,-999.0,59,-99.99,,,0.00,Acu-Link.com,2013-11-15 19:48:00,
2013-11-15 15:03:00,55.4,41.7,29.86,WSW,247,3.2,-999.0,60,-99.99,,,0.00,Acu-Link.com,2013-11-15 20:03:00,
2013-11-15 15:18:00,55.9,42.2,29.86,South,180,1.7,-999.0,60,-99.99,,,0.00,Acu-Link.com,2013-11-15 20:18:00,
2013-11-15 15:33:00,56.5,42.3,29.86,ESE,112,3.2,-999.0,59,-99.99,,,0.00,Acu-Link.com,2013-11-15 20:33:00,
2013-11-15 15:48:00,56.8,42.2,29.85,NNE,22,0.0,-999.0,58,-99.99,,,0.00,Acu-Link.com,2013-11-15 20:48:00,
2013-11-15 16:04:00,56.1,42.4,29.86,SW,225,0.0,-999.0,60,-99.99,,,0.00,Acu-Link.com,2013-11-15 21:04:00,
2013-11-15 16:19:00,55.0,42.2,29.86,NE,45,0.0,-999.0,62,-99.99,,,0.00,Acu-Link.com,2013-11-15 21:19:00,
2013-11-15 16:34:00,54.0,42.1,29.85,NE,45,0.0,-999.0,64,-99.99,,,0.00,Acu-Link.com,2013-11-15 21:34:00,
2013-11-15 16:49:00,52.9,42.2,29.85,East,90,0.0,-999.0,67,-99.99,,,0.00,Acu-Link.com,2013-11-15 21:49:00,
2013-11-15 17:04:00,51.8,41.6,29.86,SSE,157,0.0,-999.0,68,-99.99,,,0.00,Acu-Link.com,2013-11-15 22:04:00,
2013-11-15 17:19:00,51.1,41.3,29.86,NNE,22,0.0,-999.0,69,-99.99,,,0.00,Acu-Link.com,2013-11-15 22:19:00,
2013-11-15 17:34:00,50.4,42.4,29.86,East,90,0.0,-999.0,74,-99.99,,,0.00,Acu-Link.com,2013-11-15 22:34:00,
2013-11-15 17:49:00,49.1,43.2,29.86,NE,45,0.0,-999.0,80,-99.99,,,0.00,Acu-Link.com,2013-11-15 22:49:00,
2013-11-15 18:04:00,48.0,43.7,29.85,ESE,112,0.0,-999.0,85,-99.99,,,0.00,Acu-Link.com,2013-11-15 23:04:00,
2013-11-15 18:19:00,47.3,43.9,29.85,West,270,0.0,-999.0,88,-99.99,,,0.00,Acu-Link.com,2013-11-15 23:19:00,
2013-11-15 18:35:00,46.8,45.7,29.86,West,270,0.0,-999.0,96,-99.99,,,0.00,Acu-Link.com,2013-11-15 23:35:00,
2013-11-15 18:50:00,46.6,46.1,29.88,West,270,0.0,-999.0,98,-99.99,,,0.01,Acu-Link.com,2013-11-15 23:50:00,
2013-11-15 19:05:00,46.4,45.9,29.88,NE,45,0.0,-999.0,98,-99.99,,,0.01,Acu-Link.com,2013-11-16 00:05:00,
2013-11-15 19:20:00,46.0,45.5,29.88,East,90,0.0,-999.0,98,-99.99,,,0.01,Acu-Link.com,2013-11-16 00:20:00,
2013-11-15 19:35:00,45.7,45.2,29.88,West,270,0.0,-999.0,98,-99.99,,,0.02,Acu-Link.com,2013-11-16 00:35:00,
2013-11-15 19:50:00,45.5,45.0,29.87,ENE,67,0.0,-999.0,98,-99.99,,,0.02,Acu-Link.com,2013-11-16 00:50:00,
2013-11-15 20:05:00,45.7,45.2,29.87,ESE,112,0.0,-999.0,98,-99.99,,,0.02,Acu-Link.com,2013-11-16 01:05:00,
2013-11-15 20:20:00,45.9,45.4,29.87,West,270,0.0,-999.0,98,-99.99,,,0.02,Acu-Link.com,2013-11-16 01:20:00,
2013-11-15 20:35:00,45.5,45.0,29.87,SSW,202,0.0,-999.0,98,-99.99,,,0.03,Acu-Link.com,2013-11-16 01:35:00,
2013-11-15 20:51:00,45.3,44.8,29.87,ESE,112,0.0,-999.0,98,-99.99,,,0.03,Acu-Link.com,2013-11-16 01:51:00,
2013-11-15 21:06:00,45.0,44.5,29.86,NNE,22,0.0,-999.0,98,-99.99,,,0.03,Acu-Link.com,2013-11-16 02:06:00,
2013-11-15 21:21:00,44.6,44.1,29.88,WNW,292,0.0,-999.0,98,-99.99,,,0.03,Acu-Link.com,2013-11-16 02:21:00,
2013-11-15 21:36:00,45.1,44.6,29.88,ESE,112,0.0,-999.0,98,-99.99,,,0.03,Acu-Link.com,2013-11-16 02:36:00,
2013-11-15 21:51:00,45.9,45.4,29.87,East,90,0.0,-999.0,98,-99.99,,,0.03,Acu-Link.com,2013-11-16 02:51:00,
2013-11-15 22:06:00,46.8,46.3,29.87,SSE,157,3.2,-999.0,98,-99.99,,,0.03,Acu-Link.com,2013-11-16 03:06:00,
2013-11-15 22:21:00,46.9,46.4,29.88,SE,135,2.2,-999.0,98,-99.99,,,0.03,Acu-Link.com,2013-11-16 03:21:00,
2013-11-15 22:36:00,46.8,46.3,29.89,NW,315,0.0,-999.0,98,-99.99,,,0.03,Acu-Link.com,2013-11-16 03:36:00,
2013-11-15 22:51:00,46.4,45.9,29.88,SE,135,1.7,-999.0,98,-99.99,,,0.03,Acu-Link.com,2013-11-16 03:51:00,
2013-11-15 23:07:00,45.7,45.2,29.87,SE,135,0.0,-999.0,98,-99.99,,,0.03,Acu-Link.com,2013-11-16 04:07:00,
2013-11-15 23:22:00,45.0,44.5,29.87,SE,135,1.1,-999.0,98,-99.99,,,0.03,Acu-Link.com,2013-11-16 04:22:00,
2013-11-15 23:37:00,44.4,43.9,29.87,SSW,202,0.0,-999.0,98,-99.99,,,0.03,Acu-Link.com,2013-11-16 04:37:00,
2013-11-15 23:52:00,43.7,43.2,29.88,SSW,202,0.0,-999.0,98,-99.99,,,0.03,Acu-Link.com,2013-11-16 04:52:00,